Terminal Aerodrome Forecast
Issued by NWS Cleveland, OH

Home | Current Version | Previous Version | Graphics & Text | Print | Product List | Glossary On
Versions: 1 2 3 4 5 6 7 8 9 10 11 12 13 14 15 16 17 18 19
000
FTUS41 KCLE 241100
TAFMFD
TAF
KMFD 241131Z 2412/2512 02008KT P6SM SCT035
     FM241600 06008KT P6SM SCT250
     FM250000 09008KT P6SM BKN100
     FM250500 12012G20KT P6SM OVC040
     FM251000 14015G30KT 4SM -RA OVC025=

USA.gov is the U.S. government's official web portal to all federal, state and local government web resources and services.